createdAt,value
2024-02-02T00:01:57.618Z,13.34
2024-02-02T00:04:25.457Z,14.48
2024-02-02T00:06:53.167Z,13.92
2024-02-02T00:09:22.451Z,15.10
2024-02-02T00:11:50.250Z,15.61
2024-02-02T00:14:18.452Z,15.28
2024-02-02T00:16:46.566Z,12.37
2024-02-02T00:19:16.542Z,14.51
2024-02-02T00:21:44.318Z,14.57
2024-02-02T00:24:12.006Z,15.56
2024-02-02T00:26:40.461Z,13.09
2024-02-02T00:29:08.160Z,14.58
2024-02-02T00:31:36.450Z,14.65
2024-02-02T00:34:04.283Z,16.43
2024-02-02T00:36:34.520Z,14.45
2024-02-02T00:39:02.281Z,12.85
2024-02-02T00:41:30.479Z,13.31
2024-02-02T00:43:58.223Z,13.18
2024-02-02T00:46:26.493Z,14.43
2024-02-02T00:48:54.256Z,12.71
2024-02-02T00:51:22.544Z,14.78
2024-02-02T00:53:51.809Z,14.16
2024-02-02T00:56:20.570Z,15.02
2024-02-02T00:58:48.276Z,13.43
2024-02-02T01:01:16.517Z,12.28
2024-02-02T01:03:44.246Z,12.46
2024-02-02T01:06:12.630Z,14.97
2024-02-02T01:08:40.370Z,12.52
2024-02-02T01:11:10.534Z,14.48
2024-02-02T01:13:38.249Z,13.77
2024-02-02T01:16:07.496Z,13.70
2024-02-02T01:18:35.511Z,13.05
2024-02-02T01:21:04.521Z,12.21
2024-02-02T01:23:32.264Z,12.87
2024-02-02T01:26:00.013Z,13.36
2024-02-02T01:28:30.503Z,13.50
2024-02-02T01:30:58.194Z,13.03
2024-02-02T01:33:25.956Z,11.73
2024-02-02T01:35:53.955Z,12.98
2024-02-02T01:38:22.522Z,12.47
2024-02-02T01:40:51.113Z,13.19
2024-02-02T01:43:19.547Z,13.59
2024-02-02T01:45:48.600Z,12.90
2024-02-02T01:48:17.645Z,13.23
2024-02-02T01:50:45.430Z,14.23
2024-02-02T01:53:13.513Z,13.50
2024-02-02T01:55:41.514Z,13.94
2024-02-02T01:58:09.516Z,13.26
2024-02-02T02:00:38.028Z,11.09
2024-02-02T02:03:07.603Z,12.63
2024-02-02T02:05:36.982Z,12.78
2024-02-02T02:08:05.550Z,12.25
2024-02-02T02:10:33.635Z,13.66
2024-02-02T02:13:01.554Z,13.30
2024-02-02T02:15:29.353Z,11.97
2024-02-02T02:17:57.371Z,12.70
2024-02-02T02:20:27.756Z,13.55
2024-02-02T02:22:56.954Z,14.26
2024-02-02T02:25:25.608Z,14.38
2024-02-02T02:27:53.536Z,12.94
2024-02-02T02:30:21.597Z,12.64
2024-02-02T02:32:49.543Z,12.97
2024-02-02T02:35:18.581Z,13.91
2024-02-02T02:37:46.266Z,13.50
2024-02-02T02:40:16.577Z,13.54
2024-02-02T02:42:44.278Z,15.00
2024-02-02T02:45:13.617Z,14.71
2024-02-02T02:47:43.624Z,13.18
2024-02-02T02:50:12.632Z,14.41
2024-02-02T02:52:40.315Z,13.77
2024-02-02T02:55:08.601Z,15.27
2024-02-02T02:57:37.720Z,13.41
2024-02-02T03:00:10.754Z,13.99
2024-02-02T03:02:38.628Z,14.83
2024-02-02T03:05:07.729Z,16.55
2024-02-02T03:07:35.530Z,15.86
2024-02-02T03:10:03.236Z,14.92
2024-02-02T03:12:31.641Z,13.57
2024-02-02T03:15:00.937Z,15.80
2024-02-02T03:17:29.651Z,15.75
2024-02-02T03:19:57.491Z,15.66
2024-02-02T03:22:25.425Z,14.25
2024-02-02T03:24:53.648Z,14.77
2024-02-02T03:27:22.498Z,14.40
2024-02-02T03:29:50.628Z,15.33
2024-02-02T03:32:19.744Z,14.43
2024-02-02T03:34:48.594Z,14.03
2024-02-02T03:37:16.398Z,14.43
2024-02-02T03:39:47.643Z,15.66
2024-02-02T03:42:15.352Z,14.49
2024-02-02T03:44:43.655Z,15.48
2024-02-02T03:47:11.337Z,15.66
2024-02-02T03:49:40.947Z,15.05
2024-02-02T03:52:09.002Z,14.90
2024-02-02T03:54:37.724Z,16.23
2024-02-02T03:57:05.789Z,14.59
2024-02-02T03:59:33.658Z,16.26
2024-02-02T04:02:01.549Z,15.84
2024-02-02T04:04:29.239Z,17.69
2024-02-02T04:06:58.682Z,15.97
2024-02-02T04:09:26.351Z,17.18
2024-02-02T04:11:54.710Z,15.40
2024-02-02T04:14:23.412Z,17.60
2024-02-02T04:16:51.671Z,15.33
2024-02-02T04:19:20.917Z,13.59
2024-02-02T04:21:49.786Z,13.88
2024-02-02T04:24:19.113Z,15.30
2024-02-02T04:26:47.739Z,14.61
2024-02-02T04:29:15.389Z,15.21
2024-02-02T04:31:43.731Z,13.68
2024-02-02T04:34:12.243Z,14.00
2024-02-02T04:36:41.518Z,14.07
2024-02-02T04:39:09.776Z,13.44
2024-02-02T04:41:38.871Z,13.51
2024-02-02T04:44:06.823Z,14.55
2024-02-02T04:46:35.728Z,15.62
2024-02-02T04:49:03.605Z,17.02
2024-02-02T04:51:31.835Z,16.04
2024-02-02T04:53:59.548Z,17.29
2024-02-02T04:56:27.723Z,17.56
2024-02-02T04:58:56.798Z,16.09
2024-02-02T05:01:24.585Z,16.27
2024-02-02T05:03:52.775Z,14.77
2024-02-02T05:06:20.455Z,14.79
2024-02-02T05:08:48.768Z,15.91
2024-02-02T05:11:16.527Z,15.24
2024-02-02T05:13:44.757Z,16.43
2024-02-02T05:16:15.687Z,15.98
2024-02-02T05:18:45.066Z,15.19
2024-02-02T05:21:12.889Z,15.30
2024-02-02T05:23:47.140Z,15.98
2024-02-02T05:26:17.360Z,13.64
2024-02-02T05:28:56.755Z,14.08
2024-02-02T05:31:25.826Z,13.63
2024-02-02T05:33:53.891Z,16.42
2024-02-02T05:36:21.659Z,15.04
2024-02-02T05:38:49.791Z,12.17
2024-02-02T05:41:17.430Z,14.05
2024-02-02T05:43:45.760Z,14.13
2024-02-02T05:46:13.449Z,14.37
2024-02-02T05:48:42.958Z,16.08
2024-02-02T05:51:10.717Z,15.41
2024-02-02T05:53:38.402Z,15.21
2024-02-02T05:56:06.816Z,13.00
2024-02-02T05:58:34.488Z,13.97
2024-02-02T06:01:02.184Z,16.40
2024-02-02T06:03:30.851Z,14.18
2024-02-02T06:05:59.967Z,14.69
2024-02-02T06:08:27.820Z,13.21
2024-02-02T06:10:56.025Z,15.38
2024-02-02T06:13:23.705Z,13.64
2024-02-02T06:15:51.856Z,14.66
2024-02-02T06:18:20.966Z,13.38
2024-02-02T06:20:49.827Z,12.70
2024-02-02T06:23:18.920Z,12.65
2024-02-02T06:25:46.580Z,13.17
2024-02-02T06:28:15.839Z,13.51
2024-02-02T06:30:43.941Z,13.26
2024-02-02T06:33:12.687Z,14.12
2024-02-02T06:35:40.844Z,13.76
2024-02-02T06:38:08.605Z,12.77
2024-02-02T06:40:37.831Z,14.55
2024-02-02T06:43:06.389Z,13.72
2024-02-02T06:45:34.892Z,13.46
2024-02-02T06:48:03.087Z,12.41
2024-02-02T06:50:32.881Z,13.22
2024-02-02T06:53:00.565Z,14.31
2024-02-02T06:55:28.870Z,13.74
2024-02-02T06:57:57.987Z,12.75
2024-02-02T07:00:27.121Z,12.05
2024-02-02T07:02:55.012Z,12.29
2024-02-02T07:05:23.221Z,13.56
2024-02-02T07:07:51.887Z,12.48
2024-02-02T07:10:19.552Z,11.75
2024-02-02T07:12:56.061Z,12.19
2024-02-02T07:15:26.495Z,11.17
2024-02-02T07:17:55.021Z,12.17
2024-02-02T07:20:59.891Z,11.55
2024-02-02T07:23:36.946Z,13.36
2024-02-02T07:26:05.847Z,13.59
2024-02-02T07:28:38.438Z,12.43
2024-02-02T07:31:09.350Z,12.07
2024-02-02T07:33:41.061Z,11.01
2024-02-02T07:36:12.098Z,12.90
2024-02-02T07:38:50.998Z,12.48
2024-02-02T07:41:20.005Z,11.34
2024-02-02T07:43:49.083Z,11.51
2024-02-02T07:46:18.421Z,14.81
2024-02-02T07:48:48.339Z,13.47
2024-02-02T07:51:19.274Z,12.69
2024-02-02T07:53:47.884Z,15.08
2024-02-02T07:56:19.322Z,10.62
2024-02-02T07:58:56.290Z,11.77
2024-02-02T08:01:26.026Z,13.78
2024-02-02T08:03:53.983Z,10.80
2024-02-02T08:06:22.103Z,12.28
2024-02-02T08:08:49.826Z,13.38
2024-02-02T08:11:17.931Z,12.71
2024-02-02T08:13:45.670Z,11.70
2024-02-02T08:16:13.940Z,11.51
2024-02-02T08:18:43.389Z,12.07
2024-02-02T08:21:12.034Z,14.86
2024-02-02T08:23:39.767Z,13.71
2024-02-02T08:26:09.004Z,13.07
2024-02-02T08:28:45.659Z,14.16
2024-02-02T08:31:19.963Z,13.38
2024-02-02T08:33:49.282Z,14.96
2024-02-02T08:36:20.062Z,14.69
2024-02-02T08:38:47.986Z,14.02
2024-02-02T08:43:54.980Z,13.19
2024-02-02T08:46:24.153Z,13.33
2024-02-02T08:48:55.596Z,14.70
2024-02-02T08:51:49.142Z,12.23
2024-02-02T08:54:38.295Z,14.75
2024-02-02T08:57:27.043Z,13.79
2024-02-02T08:59:55.014Z,14.04
2024-02-02T09:02:43.064Z,10.87
2024-02-02T09:05:22.186Z,14.23
2024-02-02T09:07:54.026Z,14.25
2024-02-02T09:11:05.016Z,12.94
2024-02-02T09:13:35.169Z,12.62
2024-02-02T09:16:03.162Z,13.58
2024-02-02T09:18:35.063Z,12.26
2024-02-02T09:21:05.541Z,12.86
2024-02-02T09:23:55.062Z,12.27
2024-02-02T09:26:33.066Z,13.16
2024-02-02T09:29:03.063Z,13.65
2024-02-02T09:31:36.548Z,15.24
2024-02-02T09:34:08.347Z,12.91
2024-02-02T09:36:38.849Z,13.98
2024-02-02T09:39:11.162Z,13.28
2024-02-02T09:41:57.069Z,14.46
2024-02-02T09:44:37.422Z,14.58
2024-02-02T09:47:21.104Z,14.00
2024-02-02T09:49:55.763Z,13.96
2024-02-02T09:52:36.092Z,14.55
2024-02-02T09:55:09.837Z,13.13
2024-02-02T09:57:43.034Z,15.18
2024-02-02T10:00:18.200Z,13.17
2024-02-02T10:02:54.057Z,14.99
2024-02-02T10:05:34.486Z,12.97
2024-02-02T10:08:16.113Z,14.76
2024-02-02T10:10:58.918Z,14.84
2024-02-02T10:13:36.398Z,13.83
2024-02-02T10:16:15.081Z,15.87
2024-02-02T10:19:08.424Z,13.12
2024-02-02T10:21:46.172Z,15.12
2024-02-02T10:24:25.578Z,15.91
2024-02-02T10:27:07.130Z,12.79
2024-02-02T10:29:43.366Z,15.46
2024-02-02T10:32:28.187Z,15.37
2024-02-02T10:35:06.982Z,15.64
2024-02-02T10:37:37.143Z,15.41
2024-02-02T10:40:29.864Z,15.35
2024-02-02T10:43:16.100Z,12.02
2024-02-02T10:45:50.058Z,13.17
2024-02-02T10:48:34.215Z,11.28
2024-02-02T10:51:09.832Z,11.74
2024-02-02T10:53:46.184Z,15.12
2024-02-02T10:56:25.170Z,14.99
2024-02-02T10:59:16.362Z,14.51
2024-02-02T11:01:50.136Z,13.81
2024-02-02T11:04:28.134Z,14.20
2024-02-02T11:07:09.274Z,14.66
2024-02-02T11:09:45.070Z,14.90
2024-02-02T11:12:21.222Z,15.34
2024-02-02T11:14:52.467Z,14.00
2024-02-02T11:17:26.144Z,13.86
2024-02-02T11:20:05.945Z,15.22
2024-02-02T11:22:40.251Z,13.77
2024-02-02T11:25:14.345Z,14.76
2024-02-02T11:27:51.183Z,16.55
2024-02-02T11:30:32.630Z,13.96
2024-02-02T11:33:14.269Z,14.26
2024-02-02T11:35:48.628Z,13.48
2024-02-02T11:38:45.184Z,15.07
2024-02-02T11:41:18.892Z,14.51
2024-02-02T11:43:49.226Z,12.84
2024-02-02T11:46:19.391Z,13.46
2024-02-02T11:48:53.339Z,13.58
2024-02-02T11:51:22.396Z,15.48
2024-02-02T11:53:56.183Z,13.26
2024-02-02T11:56:29.019Z,14.95
2024-02-02T11:59:06.197Z,14.48
2024-02-02T12:01:44.222Z,13.43
2024-02-02T12:04:24.243Z,11.58
2024-02-02T12:06:59.331Z,12.77
2024-02-02T12:09:33.532Z,14.01
2024-02-02T12:12:02.567Z,13.34
2024-02-02T12:14:33.954Z,14.97
2024-02-02T12:17:02.212Z,15.53
2024-02-02T12:22:18.228Z,13.93
2024-02-02T12:24:48.716Z,14.75
2024-02-02T12:27:17.268Z,14.62
2024-02-02T12:30:09.795Z,13.01
2024-02-02T12:32:38.233Z,15.43
2024-02-02T12:35:06.770Z,15.59
2024-02-02T12:37:47.217Z,13.48
2024-02-02T12:40:15.275Z,13.38
2024-02-02T12:42:44.287Z,14.65
2024-02-02T12:45:14.738Z,15.01
2024-02-02T12:47:43.670Z,15.22
2024-02-02T12:50:16.533Z,13.75
2024-02-02T12:52:45.227Z,15.89
2024-02-02T12:55:14.820Z,14.26
2024-02-02T12:57:43.455Z,16.40
2024-02-02T13:00:15.400Z,15.62
2024-02-02T13:02:48.094Z,15.61
2024-02-02T13:05:18.626Z,13.99
2024-02-02T13:07:49.386Z,14.09
2024-02-02T13:10:18.692Z,14.59
2024-02-02T13:12:47.116Z,17.11
2024-02-02T13:15:18.346Z,13.80
2024-02-02T13:18:00.992Z,14.42
2024-02-02T13:20:33.444Z,15.94
2024-02-02T13:23:07.271Z,16.31
2024-02-02T13:25:34.975Z,17.18
2024-02-02T13:28:04.596Z,17.25
2024-02-02T13:30:34.349Z,14.53
2024-02-02T13:33:08.681Z,13.15
2024-02-02T13:35:41.390Z,15.45
2024-02-02T13:38:22.420Z,14.23
2024-02-02T13:40:50.670Z,14.61
2024-02-02T13:43:20.291Z,16.69
2024-02-02T13:45:49.367Z,13.40
2024-02-02T13:48:19.510Z,15.13
2024-02-02T13:50:53.104Z,16.60
2024-02-02T13:53:24.343Z,16.29
2024-02-02T13:55:53.197Z,15.39
2024-02-02T13:58:22.392Z,16.20
2024-02-02T14:00:50.735Z,15.15
2024-02-02T14:03:22.420Z,12.49
2024-02-02T14:05:51.498Z,15.16
2024-02-02T14:08:20.247Z,13.98
2024-02-02T14:10:49.105Z,14.08
2024-02-02T14:13:20.627Z,13.74
2024-02-02T14:15:51.432Z,15.08
2024-02-02T14:18:23.343Z,15.97
2024-02-02T14:20:51.210Z,14.97
2024-02-02T14:23:19.549Z,16.10
2024-02-02T14:25:49.506Z,14.68
2024-02-02T14:28:18.377Z,14.09
2024-02-02T14:30:46.689Z,14.80
2024-02-02T14:33:24.479Z,15.70
2024-02-02T14:35:56.358Z,13.31
2024-02-02T14:38:24.161Z,14.18
2024-02-02T14:40:54.555Z,15.51
2024-02-02T14:43:22.383Z,13.80
2024-02-02T14:45:50.844Z,15.34
2024-02-02T14:48:20.901Z,15.26
2024-02-02T14:50:48.763Z,16.26
2024-02-02T14:53:18.420Z,16.39
2024-02-02T14:55:46.176Z,14.28
2024-02-02T14:58:15.390Z,14.47
2024-02-02T15:00:45.869Z,16.70
2024-02-02T15:03:14.560Z,13.92
2024-02-02T15:05:42.407Z,15.99
2024-02-02T15:08:11.430Z,13.52
2024-02-02T15:10:42.099Z,15.12
2024-02-02T15:13:12.417Z,13.27
2024-02-02T15:15:40.258Z,15.57
2024-02-02T15:18:09.545Z,14.18
2024-02-02T15:20:37.365Z,13.57
2024-02-02T15:23:05.653Z,14.74
2024-02-02T15:25:33.389Z,15.39
2024-02-02T15:28:02.574Z,15.81
2024-02-02T15:30:30.475Z,14.22
2024-02-02T15:32:58.158Z,15.77
2024-02-02T15:35:26.462Z,15.30
2024-02-02T15:37:54.333Z,15.60
2024-02-02T15:40:22.457Z,16.53
2024-02-02T15:42:51.837Z,14.75
2024-02-02T15:45:21.193Z,17.28
2024-02-02T15:47:51.927Z,16.19
2024-02-02T15:50:19.997Z,15.74
2024-02-02T15:52:47.891Z,16.38
2024-02-02T15:55:16.064Z,14.83
2024-02-02T15:57:46.490Z,15.72
2024-02-02T16:00:15.411Z,15.08
2024-02-02T16:02:45.000Z,14.59
2024-02-02T16:05:17.460Z,16.38
2024-02-02T16:07:45.563Z,17.42
2024-02-02T16:10:14.508Z,14.38
2024-02-02T16:12:42.321Z,15.25
2024-02-02T16:15:11.502Z,14.82
2024-02-02T16:17:40.550Z,16.33
2024-02-02T16:20:12.531Z,14.86
2024-02-02T16:22:40.796Z,17.49
2024-02-02T16:25:11.483Z,18.00
2024-02-02T16:27:39.661Z,19.04
2024-02-02T16:30:09.528Z,16.28
2024-02-02T16:32:37.395Z,18.50
2024-02-02T16:35:07.778Z,16.40
2024-02-02T16:37:39.531Z,16.21
2024-02-02T16:40:09.507Z,15.11
2024-02-02T16:42:37.627Z,15.77
2024-02-02T16:45:06.583Z,15.29
2024-02-02T16:47:34.637Z,18.76
2024-02-02T16:50:02.394Z,17.01
2024-02-02T16:52:30.667Z,15.70
2024-02-02T16:54:59.723Z,15.34
2024-02-02T16:57:28.773Z,15.35
2024-02-02T16:59:58.530Z,18.12
2024-02-02T17:02:26.291Z,18.34
2024-02-02T17:04:54.633Z,18.11
2024-02-02T17:07:23.957Z,15.45
2024-02-02T17:09:52.637Z,16.11
2024-02-02T17:12:22.857Z,18.59
2024-02-02T17:14:51.542Z,17.09
2024-02-02T17:17:20.092Z,17.27
2024-02-02T17:19:48.617Z,16.09
2024-02-02T17:22:16.706Z,16.65
2024-02-02T17:24:45.593Z,15.15
2024-02-02T17:27:13.285Z,16.03
2024-02-02T17:29:45.565Z,14.33
2024-02-02T17:32:17.312Z,17.88
2024-02-02T17:34:49.266Z,17.95
2024-02-02T17:37:17.164Z,15.71
2024-02-02T17:39:46.685Z,15.46
2024-02-02T17:42:14.506Z,19.29
2024-02-02T17:44:42.557Z,14.78
2024-02-02T17:47:12.338Z,18.29
2024-02-02T17:49:45.551Z,17.06
2024-02-02T17:52:16.931Z,16.94
2024-02-02T17:54:45.722Z,17.04
2024-02-02T17:57:13.579Z,15.97
2024-02-02T17:59:42.587Z,16.00
2024-02-02T18:02:12.024Z,16.03
2024-02-02T18:04:40.613Z,16.69
2024-02-02T18:07:09.822Z,19.38
2024-02-02T18:09:40.642Z,17.35
2024-02-02T18:12:12.102Z,17.18
2024-02-02T18:14:39.937Z,17.10
2024-02-02T18:17:08.610Z,16.71
2024-02-02T18:19:38.035Z,18.18
2024-02-02T18:22:06.611Z,15.67
2024-02-02T18:24:34.362Z,16.44
2024-02-02T18:27:02.689Z,19.00
2024-02-02T18:29:30.370Z,17.73
2024-02-02T18:31:58.663Z,14.46
2024-02-02T18:34:26.526Z,16.13
2024-02-02T18:36:56.670Z,15.76
2024-02-02T18:39:24.365Z,17.90
2024-02-02T18:41:52.916Z,17.21
2024-02-02T18:44:20.574Z,15.33
2024-02-02T18:46:48.712Z,17.58
2024-02-02T18:49:16.673Z,16.44
2024-02-02T18:51:44.461Z,15.72
2024-02-02T18:54:14.682Z,15.80
2024-02-02T18:56:42.463Z,16.47
2024-02-02T18:59:10.116Z,17.44
2024-02-02T19:01:38.694Z,15.59
2024-02-02T19:04:06.708Z,16.19
2024-02-02T19:06:38.772Z,17.72
2024-02-02T19:09:07.625Z,18.37
2024-02-02T19:11:37.697Z,17.66
2024-02-02T19:14:06.600Z,14.78
2024-02-02T19:16:34.745Z,18.59
2024-02-02T19:19:02.560Z,19.56
2024-02-02T19:21:33.354Z,18.88
2024-02-02T19:24:02.763Z,17.08
2024-02-02T19:26:30.722Z,17.82
2024-02-02T19:29:00.223Z,18.74
2024-02-02T19:31:28.736Z,17.69
2024-02-02T19:33:57.972Z,18.63
2024-02-02T19:36:28.409Z,16.91
2024-02-02T19:38:57.740Z,16.41
2024-02-02T19:41:26.728Z,17.39
2024-02-02T19:43:55.720Z,17.29
2024-02-02T19:46:35.190Z,17.29
2024-02-02T19:49:04.865Z,18.04
2024-02-02T19:51:33.822Z,17.64
2024-02-02T19:54:02.891Z,16.50
2024-02-02T19:56:30.717Z,15.58
2024-02-02T19:58:59.735Z,16.61
2024-02-02T20:01:27.536Z,17.86
2024-02-02T20:03:57.808Z,16.91
2024-02-02T20:06:25.654Z,15.44
2024-02-02T20:08:53.742Z,17.05
2024-02-02T20:11:22.933Z,16.72
2024-02-02T20:13:50.692Z,16.38
2024-02-02T20:19:02.923Z,16.11
2024-02-02T20:21:30.687Z,19.19
2024-02-02T20:23:58.781Z,16.78
2024-02-02T20:26:26.773Z,15.93
2024-02-02T20:28:55.833Z,16.21
2024-02-02T20:31:24.816Z,18.29
2024-02-02T20:33:54.379Z,18.19
2024-02-02T20:36:29.245Z,16.83
2024-02-02T20:39:15.295Z,16.66
2024-02-02T20:41:43.784Z,17.44
2024-02-02T20:44:11.431Z,15.76
2024-02-02T20:46:39.786Z,18.94
2024-02-02T20:49:07.543Z,15.23
2024-02-02T20:51:41.853Z,15.09
2024-02-02T20:54:09.559Z,16.17
2024-02-02T20:56:41.812Z,18.83
2024-02-02T20:59:09.526Z,16.47
2024-02-02T21:01:37.845Z,16.71
2024-02-02T21:04:05.992Z,15.08
2024-02-02T21:06:34.010Z,16.69
2024-02-02T21:09:03.913Z,17.55
2024-02-02T21:11:31.728Z,18.54
2024-02-02T21:13:59.817Z,15.17
2024-02-02T21:16:27.452Z,18.16
2024-02-02T21:18:57.978Z,15.88
2024-02-02T21:21:25.769Z,16.14
2024-02-02T21:23:53.848Z,15.67
2024-02-02T21:26:23.805Z,17.87
2024-02-02T21:28:51.839Z,18.03
2024-02-02T21:31:19.665Z,17.48
2024-02-02T21:33:47.875Z,18.68
2024-02-02T21:36:15.677Z,18.45
2024-02-02T21:38:43.688Z,16.56
2024-02-02T21:41:11.886Z,17.13
2024-02-02T21:43:40.963Z,16.69
2024-02-02T21:46:08.866Z,19.17
2024-02-02T21:48:36.743Z,18.27
2024-02-02T21:51:08.886Z,16.00
2024-02-02T21:53:36.647Z,17.46
2024-02-02T21:56:05.867Z,18.88
2024-02-02T21:58:33.545Z,18.20
2024-02-02T22:01:03.062Z,18.97
2024-02-02T22:03:30.980Z,17.44
2024-02-02T22:05:58.911Z,16.06
2024-02-02T22:08:26.675Z,19.76
2024-02-02T22:10:54.318Z,18.26
2024-02-02T22:13:22.875Z,16.91
2024-02-02T22:15:50.648Z,17.39
2024-02-02T22:18:20.188Z,18.42
2024-02-02T22:20:48.911Z,17.73
2024-02-02T22:23:16.584Z,18.28
2024-02-02T22:25:44.930Z,20.09
2024-02-02T22:28:13.239Z,17.46
2024-02-02T22:30:41.981Z,16.68
2024-02-02T22:33:09.855Z,17.88
2024-02-02T22:35:39.916Z,17.50
2024-02-02T22:38:07.696Z,14.73
2024-02-02T22:40:35.982Z,17.04
2024-02-02T22:43:03.698Z,14.88
2024-02-02T22:45:31.481Z,17.22
2024-02-02T22:48:00.019Z,15.86
2024-02-02T22:50:27.748Z,16.10
2024-02-02T22:52:57.111Z,17.04
2024-02-02T22:55:24.952Z,18.30
2024-02-02T22:57:52.672Z,17.59
2024-02-02T23:00:22.561Z,19.52
2024-02-02T23:02:51.981Z,16.34
2024-02-02T23:05:19.659Z,16.79
2024-02-02T23:07:47.306Z,19.33
2024-02-02T23:10:16.942Z,15.24
2024-02-02T23:12:46.089Z,18.18
2024-02-02T23:15:15.003Z,18.24
2024-02-02T23:17:43.398Z,15.92
2024-02-02T23:20:12.114Z,18.78
2024-02-02T23:22:39.828Z,18.92
2024-02-02T23:25:07.967Z,16.66
2024-02-02T23:27:38.067Z,16.48
2024-02-02T23:30:07.983Z,16.39
2024-02-02T23:32:35.754Z,18.38
2024-02-02T23:35:04.056Z,16.77
2024-02-02T23:37:32.143Z,21.26
2024-02-02T23:40:00.005Z,15.40
2024-02-02T23:42:27.716Z,16.45
2024-02-02T23:44:57.051Z,19.08
2024-02-02T23:47:24.694Z,16.44
2024-02-02T23:49:52.370Z,18.82
2024-02-02T23:52:21.011Z,17.19
2024-02-02T23:54:48.799Z,15.60
2024-02-02T23:57:22.129Z,16.81
2024-02-02T23:59:49.825Z,16.86
